sensor_id;sensor_type;location;lat;lon;timestamp;P1;durP1;ratioP1;P2;durP2;ratioP2
81960;SDS011;71462;50.650;6.888;2023-09-12T00:01:56;17.58;;;10.50;;
81960;SDS011;71462;50.650;6.888;2023-09-12T00:03:59;18.58;;;9.93;;
81960;SDS011;71462;50.650;6.888;2023-09-12T00:06:02;20.55;;;11.00;;
81960;SDS011;71462;50.650;6.888;2023-09-12T00:08:04;19.00;;;9.77;;
81960;SDS011;71462;50.650;6.888;2023-09-12T00:10:07;22.83;;;10.43;;
81960;SDS011;71462;50.650;6.888;2023-09-12T00:12:13;19.58;;;9.70;;
81960;SDS011;71462;50.650;6.888;2023-09-12T00:14:16;17.15;;;9.93;;
81960;SDS011;71462;50.650;6.888;2023-09-12T00:16:21;19.80;;;9.75;;
81960;SDS011;71462;50.650;6.888;2023-09-12T00:18:24;18.05;;;9.60;;
81960;SDS011;71462;50.650;6.888;2023-09-12T00:20:26;16.80;;;9.50;;
81960;SDS011;71462;50.650;6.888;2023-09-12T00:22:29;16.15;;;8.90;;
81960;SDS011;71462;50.650;6.888;2023-09-12T00:24:31;16.90;;;9.40;;
81960;SDS011;71462;50.650;6.888;2023-09-12T00:26:33;14.63;;;7.95;;
81960;SDS011;71462;50.650;6.888;2023-09-12T00:28:36;18.55;;;9.23;;
81960;SDS011;71462;50.650;6.888;2023-09-12T00:30:40;14.57;;;7.97;;
81960;SDS011;71462;50.650;6.888;2023-09-12T00:32:45;14.18;;;7.75;;
81960;SDS011;71462;50.650;6.888;2023-09-12T00:34:48;15.00;;;8.38;;
81960;SDS011;71462;50.650;6.888;2023-09-12T00:36:50;17.63;;;8.07;;
81960;SDS011;71462;50.650;6.888;2023-09-12T00:38:53;14.73;;;7.40;;
81960;SDS011;71462;50.650;6.888;2023-09-12T00:40:54;14.80;;;7.68;;
81960;SDS011;71462;50.650;6.888;2023-09-12T00:42:58;12.25;;;7.55;;
81960;SDS011;71462;50.650;6.888;2023-09-12T00:45:00;16.33;;;8.25;;
81960;SDS011;71462;50.650;6.888;2023-09-12T00:47:03;15.85;;;6.68;;
81960;SDS011;71462;50.650;6.888;2023-09-12T00:49:08;13.20;;;7.50;;
81960;SDS011;71462;50.650;6.888;2023-09-12T00:51:12;14.35;;;6.95;;
81960;SDS011;71462;50.650;6.888;2023-09-12T00:53:16;14.18;;;7.03;;
81960;SDS011;71462;50.650;6.888;2023-09-12T00:55:21;15.30;;;7.82;;
81960;SDS011;71462;50.650;6.888;2023-09-12T00:57:23;12.57;;;6.88;;
81960;SDS011;71462;50.650;6.888;2023-09-12T00:59:27;15.38;;;7.65;;
81960;SDS011;71462;50.650;6.888;2023-09-12T01:01:30;17.13;;;7.45;;
81960;SDS011;71462;50.650;6.888;2023-09-12T01:03:34;15.68;;;8.55;;
81960;SDS011;71462;50.650;6.888;2023-09-12T01:05:39;13.30;;;7.78;;
81960;SDS011;71462;50.650;6.888;2023-09-12T01:07:43;16.17;;;8.80;;
81960;SDS011;71462;50.650;6.888;2023-09-12T01:09:46;15.85;;;8.02;;
81960;SDS011;71462;50.650;6.888;2023-09-12T01:11:49;13.88;;;7.88;;
81960;SDS011;71462;50.650;6.888;2023-09-12T01:13:51;14.95;;;7.60;;
81960;SDS011;71462;50.650;6.888;2023-09-12T01:15:54;14.57;;;8.43;;
81960;SDS011;71462;50.650;6.888;2023-09-12T01:17:56;13.88;;;8.55;;
81960;SDS011;71462;50.650;6.888;2023-09-12T01:20:00;17.30;;;7.78;;
81960;SDS011;71462;50.650;6.888;2023-09-12T01:22:12;16.17;;;8.30;;
81960;SDS011;71462;50.650;6.888;2023-09-12T01:27:20;14.57;;;7.53;;
81960;SDS011;71462;50.650;6.888;2023-09-12T01:29:24;15.98;;;8.05;;
81960;SDS011;71462;50.650;6.888;2023-09-12T01:31:27;13.98;;;7.80;;
81960;SDS011;71462;50.650;6.888;2023-09-12T01:33:31;15.23;;;7.63;;
81960;SDS011;71462;50.650;6.888;2023-09-12T01:35:34;16.05;;;8.07;;
81960;SDS011;71462;50.650;6.888;2023-09-12T01:37:37;11.75;;;6.43;;
81960;SDS011;71462;50.650;6.888;2023-09-12T01:39:39;12.43;;;7.57;;
81960;SDS011;71462;50.650;6.888;2023-09-12T01:41:41;13.95;;;7.32;;
81960;SDS011;71462;50.650;6.888;2023-09-12T01:43:49;10.55;;;7.07;;
81960;SDS011;71462;50.650;6.888;2023-09-12T01:45:54;15.85;;;8.02;;
81960;SDS011;71462;50.650;6.888;2023-09-12T01:47:59;14.55;;;7.20;;
81960;SDS011;71462;50.650;6.888;2023-09-12T01:50:03;16.30;;;6.93;;
81960;SDS011;71462;50.650;6.888;2023-09-12T01:52:07;14.10;;;7.32;;
81960;SDS011;71462;50.650;6.888;2023-09-12T01:54:11;13.90;;;6.95;;
81960;SDS011;71462;50.650;6.888;2023-09-12T01:56:14;12.63;;;7.05;;
81960;SDS011;71462;50.650;6.888;2023-09-12T01:58:17;10.70;;;6.45;;
81960;SDS011;71462;50.650;6.888;2023-09-12T02:00:21;14.82;;;7.72;;
81960;SDS011;71462;50.650;6.888;2023-09-12T02:02:23;12.73;;;7.22;;
81960;SDS011;71462;50.650;6.888;2023-09-12T02:04:26;14.75;;;7.97;;
81960;SDS011;71462;50.650;6.888;2023-09-12T02:06:28;13.77;;;7.68;;
81960;SDS011;71462;50.650;6.888;2023-09-12T02:08:30;14.95;;;7.10;;
81960;SDS011;71462;50.650;6.888;2023-09-12T02:10:33;10.55;;;6.63;;
81960;SDS011;71462;50.650;6.888;2023-09-12T02:12:35;14.70;;;8.13;;
81960;SDS011;71462;50.650;6.888;2023-09-12T02:14:38;11.60;;;7.13;;
81960;SDS011;71462;50.650;6.888;2023-09-12T02:16:42;14.23;;;7.43;;
81960;SDS011;71462;50.650;6.888;2023-09-12T02:18:45;17.25;;;7.35;;
81960;SDS011;71462;50.650;6.888;2023-09-12T02:20:47;12.50;;;7.53;;
81960;SDS011;71462;50.650;6.888;2023-09-12T02:22:50;15.90;;;7.80;;
81960;SDS011;71462;50.650;6.888;2023-09-12T02:24:53;16.13;;;7.57;;
81960;SDS011;71462;50.650;6.888;2023-09-12T02:26:55;13.75;;;7.45;;
81960;SDS011;71462;50.650;6.888;2023-09-12T02:28:58;14.77;;;7.68;;
81960;SDS011;71462;50.650;6.888;2023-09-12T02:31:02;14.82;;;6.97;;
81960;SDS011;71462;50.650;6.888;2023-09-12T02:33:06;15.10;;;8.05;;
81960;SDS011;71462;50.650;6.888;2023-09-12T02:35:08;13.73;;;7.85;;
81960;SDS011;71462;50.650;6.888;2023-09-12T02:37:11;14.48;;;8.20;;
81960;SDS011;71462;50.650;6.888;2023-09-12T02:39:13;13.90;;;8.73;;
81960;SDS011;71462;50.650;6.888;2023-09-12T02:41:16;16.80;;;8.35;;
81960;SDS011;71462;50.650;6.888;2023-09-12T02:43:19;14.52;;;7.78;;
81960;SDS011;71462;50.650;6.888;2023-09-12T02:45:21;16.35;;;8.55;;
81960;SDS011;71462;50.650;6.888;2023-09-12T02:47:24;16.58;;;8.02;;
81960;SDS011;71462;50.650;6.888;2023-09-12T02:49:28;14.73;;;8.27;;
81960;SDS011;71462;50.650;6.888;2023-09-12T02:51:31;14.35;;;7.90;;
81960;SDS011;71462;50.650;6.888;2023-09-12T02:53:33;15.70;;;8.45;;
81960;SDS011;71462;50.650;6.888;2023-09-12T02:55:38;15.00;;;8.88;;
81960;SDS011;71462;50.650;6.888;2023-09-12T02:57:42;17.75;;;9.77;;
81960;SDS011;71462;50.650;6.888;2023-09-12T02:59:44;13.15;;;7.97;;
81960;SDS011;71462;50.650;6.888;2023-09-12T03:01:47;16.10;;;8.55;;
81960;SDS011;71462;50.650;6.888;2023-09-12T03:03:49;14.98;;;8.50;;
81960;SDS011;71462;50.650;6.888;2023-09-12T03:05:58;17.05;;;8.82;;
81960;SDS011;71462;50.650;6.888;2023-09-12T03:08:01;14.98;;;8.00;;
81960;SDS011;71462;50.650;6.888;2023-09-12T03:10:04;16.70;;;7.85;;
81960;SDS011;71462;50.650;6.888;2023-09-12T03:12:07;12.77;;;7.97;;
81960;SDS011;71462;50.650;6.888;2023-09-12T03:14:10;13.88;;;8.43;;
81960;SDS011;71462;50.650;6.888;2023-09-12T03:16:12;15.35;;;8.65;;
81960;SDS011;71462;50.650;6.888;2023-09-12T03:18:15;16.73;;;8.18;;
81960;SDS011;71462;50.650;6.888;2023-09-12T03:20:18;15.95;;;9.43;;
81960;SDS011;71462;50.650;6.888;2023-09-12T03:22:21;17.77;;;9.25;;
81960;SDS011;71462;50.650;6.888;2023-09-12T03:24:23;15.93;;;9.15;;
81960;SDS011;71462;50.650;6.888;2023-09-12T03:26:26;13.27;;;7.80;;
81960;SDS011;71462;50.650;6.888;2023-09-12T03:28:29;12.88;;;8.23;;
81960;SDS011;71462;50.650;6.888;2023-09-12T03:30:32;14.88;;;7.40;;
81960;SDS011;71462;50.650;6.888;2023-09-12T03:32:35;20.02;;;8.13;;
81960;SDS011;71462;50.650;6.888;2023-09-12T03:34:36;16.80;;;8.85;;
81960;SDS011;71462;50.650;6.888;2023-09-12T03:36:39;21.98;;;8.93;;
81960;SDS011;71462;50.650;6.888;2023-09-12T03:38:43;13.88;;;8.38;;
81960;SDS011;71462;50.650;6.888;2023-09-12T03:40:45;14.93;;;8.45;;
81960;SDS011;71462;50.650;6.888;2023-09-12T03:42:48;13.68;;;8.02;;
81960;SDS011;71462;50.650;6.888;2023-09-12T03:44:50;13.60;;;8.95;;
81960;SDS011;71462;50.650;6.888;2023-09-12T03:46:53;17.13;;;9.68;;
81960;SDS011;71462;50.650;6.888;2023-09-12T03:48:55;17.65;;;9.40;;
81960;SDS011;71462;50.650;6.888;2023-09-12T03:50:58;19.63;;;9.48;;
81960;SDS011;71462;50.650;6.888;2023-09-12T03:52:59;19.40;;;10.52;;
81960;SDS011;71462;50.650;6.888;2023-09-12T03:55:04;18.33;;;10.35;;
81960;SDS011;71462;50.650;6.888;2023-09-12T03:57:07;21.38;;;10.07;;
81960;SDS011;71462;50.650;6.888;2023-09-12T03:59:09;18.65;;;10.45;;
81960;SDS011;71462;50.650;6.888;2023-09-12T04:01:13;18.00;;;9.82;;
81960;SDS011;71462;50.650;6.888;2023-09-12T04:03:16;19.10;;;10.90;;
81960;SDS011;71462;50.650;6.888;2023-09-12T04:05:19;19.83;;;10.85;;
81960;SDS011;71462;50.650;6.888;2023-09-12T04:07:21;20.35;;;11.07;;
81960;SDS011;71462;50.650;6.888;2023-09-12T04:09:24;20.48;;;11.18;;
81960;SDS011;71462;50.650;6.888;2023-09-12T04:11:28;17.90;;;9.82;;
81960;SDS011;71462;50.650;6.888;2023-09-12T04:13:46;19.40;;;10.55;;
81960;SDS011;71462;50.650;6.888;2023-09-12T04:15:48;20.75;;;11.00;;
81960;SDS011;71462;50.650;6.888;2023-09-12T04:17:51;19.65;;;10.32;;
81960;SDS011;71462;50.650;6.888;2023-09-12T04:19:54;21.27;;;10.27;;
81960;SDS011;71462;50.650;6.888;2023-09-12T04:21:56;21.05;;;10.25;;
81960;SDS011;71462;50.650;6.888;2023-09-12T04:23:59;25.30;;;13.80;;
81960;SDS011;71462;50.650;6.888;2023-09-12T04:26:01;25.83;;;12.10;;
81960;SDS011;71462;50.650;6.888;2023-09-12T04:28:06;24.35;;;12.93;;
81960;SDS011;71462;50.650;6.888;2023-09-12T04:30:08;27.45;;;14.25;;
81960;SDS011;71462;50.650;6.888;2023-09-12T04:32:10;27.98;;;14.13;;
81960;SDS011;71462;50.650;6.888;2023-09-12T04:34:13;29.90;;;15.38;;
81960;SDS011;71462;50.650;6.888;2023-09-12T04:36:15;26.27;;;14.25;;
81960;SDS011;71462;50.650;6.888;2023-09-12T04:38:18;25.98;;;13.43;;
81960;SDS011;71462;50.650;6.888;2023-09-12T04:40:21;27.75;;;15.40;;
81960;SDS011;71462;50.650;6.888;2023-09-12T04:42:24;23.65;;;14.00;;
81960;SDS011;71462;50.650;6.888;2023-09-12T04:44:27;29.08;;;15.38;;
81960;SDS011;71462;50.650;6.888;2023-09-12T04:46:29;29.35;;;14.40;;
81960;SDS011;71462;50.650;6.888;2023-09-12T04:48:32;24.52;;;12.98;;
81960;SDS011;71462;50.650;6.888;2023-09-12T04:50:39;25.58;;;13.18;;
81960;SDS011;71462;50.650;6.888;2023-09-12T04:52:42;26.00;;;12.60;;
81960;SDS011;71462;50.650;6.888;2023-09-12T04:54:45;28.15;;;14.48;;
81960;SDS011;71462;50.650;6.888;2023-09-12T04:56:51;25.63;;;14.40;;
81960;SDS011;71462;50.650;6.888;2023-09-12T04:58:56;31.42;;;15.57;;
81960;SDS011;71462;50.650;6.888;2023-09-12T05:01:00;30.25;;;14.77;;
81960;SDS011;71462;50.650;6.888;2023-09-12T05:03:03;25.85;;;13.75;;
81960;SDS011;71462;50.650;6.888;2023-09-12T05:05:07;27.77;;;14.52;;
81960;SDS011;71462;50.650;6.888;2023-09-12T05:07:09;29.52;;;13.82;;
81960;SDS011;71462;50.650;6.888;2023-09-12T05:09:12;28.10;;;15.32;;
81960;SDS011;71462;50.650;6.888;2023-09-12T05:11:14;30.05;;;15.48;;
81960;SDS011;71462;50.650;6.888;2023-09-12T05:13:19;34.85;;;13.73;;
81960;SDS011;71462;50.650;6.888;2023-09-12T05:15:21;26.45;;;14.70;;
81960;SDS011;71462;50.650;6.888;2023-09-12T05:17:25;29.13;;;14.20;;
81960;SDS011;71462;50.650;6.888;2023-09-12T05:21:32;26.63;;;15.85;;
81960;SDS011;71462;50.650;6.888;2023-09-12T05:23:34;28.10;;;15.02;;
81960;SDS011;71462;50.650;6.888;2023-09-12T05:25:37;30.75;;;15.93;;
81960;SDS011;71462;50.650;6.888;2023-09-12T05:27:40;27.85;;;15.73;;
81960;SDS011;71462;50.650;6.888;2023-09-12T05:29:42;25.15;;;14.80;;
81960;SDS011;71462;50.650;6.888;2023-09-12T05:31:45;28.05;;;14.85;;
81960;SDS011;71462;50.650;6.888;2023-09-12T05:33:49;28.65;;;13.70;;
81960;SDS011;71462;50.650;6.888;2023-09-12T05:35:51;30.17;;;14.80;;
81960;SDS011;71462;50.650;6.888;2023-09-12T05:37:54;26.13;;;14.75;;
81960;SDS011;71462;50.650;6.888;2023-09-12T05:39:56;31.67;;;15.52;;
81960;SDS011;71462;50.650;6.888;2023-09-12T05:41:59;34.75;;;15.20;;
81960;SDS011;71462;50.650;6.888;2023-09-12T05:44:02;28.30;;;14.65;;
81960;SDS011;71462;50.650;6.888;2023-09-12T05:46:04;27.60;;;14.30;;
81960;SDS011;71462;50.650;6.888;2023-09-12T05:48:07;27.98;;;14.93;;
81960;SDS011;71462;50.650;6.888;2023-09-12T05:50:12;29.85;;;16.15;;
81960;SDS011;71462;50.650;6.888;2023-09-12T05:52:14;30.92;;;15.98;;
81960;SDS011;71462;50.650;6.888;2023-09-12T05:54:17;30.75;;;15.48;;
81960;SDS011;71462;50.650;6.888;2023-09-12T05:56:20;29.33;;;14.48;;
81960;SDS011;71462;50.650;6.888;2023-09-12T05:58:23;30.25;;;15.00;;
81960;SDS011;71462;50.650;6.888;2023-09-12T06:00:25;26.42;;;14.38;;
81960;SDS011;71462;50.650;6.888;2023-09-12T06:02:28;26.67;;;15.35;;
81960;SDS011;71462;50.650;6.888;2023-09-12T06:04:31;25.13;;;14.35;;
81960;SDS011;71462;50.650;6.888;2023-09-12T06:06:34;30.20;;;14.63;;
81960;SDS011;71462;50.650;6.888;2023-09-12T06:08:37;31.10;;;14.27;;
81960;SDS011;71462;50.650;6.888;2023-09-12T06:10:40;32.53;;;15.75;;
81960;SDS011;71462;50.650;6.888;2023-09-12T06:12:42;31.58;;;16.63;;
81960;SDS011;71462;50.650;6.888;2023-09-12T06:14:45;31.42;;;14.95;;
81960;SDS011;71462;50.650;6.888;2023-09-12T06:16:47;34.55;;;17.02;;
81960;SDS011;71462;50.650;6.888;2023-09-12T06:18:50;31.48;;;16.33;;
81960;SDS011;71462;50.650;6.888;2023-09-12T06:20:54;31.90;;;15.93;;
81960;SDS011;71462;50.650;6.888;2023-09-12T06:22:58;25.83;;;15.85;;
81960;SDS011;71462;50.650;6.888;2023-09-12T06:25:01;32.30;;;15.68;;
81960;SDS011;71462;50.650;6.888;2023-09-12T06:27:04;27.42;;;14.20;;
81960;SDS011;71462;50.650;6.888;2023-09-12T06:29:07;27.67;;;15.13;;
81960;SDS011;71462;50.650;6.888;2023-09-12T06:31:09;27.77;;;13.93;;
81960;SDS011;71462;50.650;6.888;2023-09-12T06:33:12;27.60;;;15.63;;
81960;SDS011;71462;50.650;6.888;2023-09-12T06:35:14;32.50;;;14.57;;
81960;SDS011;71462;50.650;6.888;2023-09-12T06:37:17;29.33;;;14.38;;
81960;SDS011;71462;50.650;6.888;2023-09-12T06:39:21;26.02;;;14.57;;
81960;SDS011;71462;50.650;6.888;2023-09-12T06:41:23;26.35;;;13.63;;
81960;SDS011;71462;50.650;6.888;2023-09-12T06:43:25;24.05;;;13.90;;
81960;SDS011;71462;50.650;6.888;2023-09-12T06:45:28;29.88;;;15.32;;
81960;SDS011;71462;50.650;6.888;2023-09-12T06:47:34;27.95;;;15.43;;
81960;SDS011;71462;50.650;6.888;2023-09-12T06:49:36;27.60;;;15.00;;
81960;SDS011;71462;50.650;6.888;2023-09-12T06:51:39;25.52;;;13.27;;
81960;SDS011;71462;50.650;6.888;2023-09-12T06:53:42;30.05;;;14.88;;
81960;SDS011;71462;50.650;6.888;2023-09-12T06:55:46;23.10;;;13.63;;
81960;SDS011;71462;50.650;6.888;2023-09-12T06:57:49;23.40;;;13.23;;
81960;SDS011;71462;50.650;6.888;2023-09-12T06:59:51;28.17;;;14.05;;
81960;SDS011;71462;50.650;6.888;2023-09-12T07:01:54;25.48;;;13.80;;
81960;SDS011;71462;50.650;6.888;2023-09-12T07:03:57;26.48;;;14.55;;
81960;SDS011;71462;50.650;6.888;2023-09-12T07:05:59;25.55;;;13.68;;
81960;SDS011;71462;50.650;6.888;2023-09-12T07:08:01;24.73;;;13.10;;
81960;SDS011;71462;50.650;6.888;2023-09-12T07:10:05;26.95;;;13.90;;
81960;SDS011;71462;50.650;6.888;2023-09-12T07:12:25;30.63;;;13.85;;
81960;SDS011;71462;50.650;6.888;2023-09-12T07:14:30;33.03;;;15.07;;
81960;SDS011;71462;50.650;6.888;2023-09-12T07:16:32;31.38;;;14.95;;
81960;SDS011;71462;50.650;6.888;2023-09-12T07:18:38;32.92;;;16.17;;
81960;SDS011;71462;50.650;6.888;2023-09-12T07:20:41;35.30;;;15.30;;
81960;SDS011;71462;50.650;6.888;2023-09-12T07:22:44;37.00;;;15.77;;
81960;SDS011;71462;50.650;6.888;2023-09-12T07:24:47;30.15;;;14.75;;
81960;SDS011;71462;50.650;6.888;2023-09-12T07:26:49;30.80;;;14.43;;
81960;SDS011;71462;50.650;6.888;2023-09-12T07:28:53;32.55;;;15.85;;
81960;SDS011;71462;50.650;6.888;2023-09-12T07:30:56;28.40;;;16.23;;
81960;SDS011;71462;50.650;6.888;2023-09-12T07:32:58;31.25;;;15.98;;
81960;SDS011;71462;50.650;6.888;2023-09-12T07:35:00;26.98;;;15.77;;
81960;SDS011;71462;50.650;6.888;2023-09-12T07:37:03;29.38;;;14.68;;
81960;SDS011;71462;50.650;6.888;2023-09-12T07:39:06;38.03;;;15.43;;
81960;SDS011;71462;50.650;6.888;2023-09-12T07:41:09;25.38;;;14.25;;
81960;SDS011;71462;50.650;6.888;2023-09-12T07:43:11;28.08;;;13.60;;
81960;SDS011;71462;50.650;6.888;2023-09-12T07:45:15;36.30;;;15.98;;
81960;SDS011;71462;50.650;6.888;2023-09-12T07:47:18;31.63;;;15.32;;
81960;SDS011;71462;50.650;6.888;2023-09-12T07:49:21;32.25;;;14.75;;
81960;SDS011;71462;50.650;6.888;2023-09-12T07:51:25;25.85;;;13.40;;
81960;SDS011;71462;50.650;6.888;2023-09-12T07:53:28;28.65;;;14.02;;
81960;SDS011;71462;50.650;6.888;2023-09-12T07:55:30;28.48;;;14.93;;
81960;SDS011;71462;50.650;6.888;2023-09-12T07:57:37;28.90;;;15.20;;
81960;SDS011;71462;50.650;6.888;2023-09-12T07:59:39;27.52;;;13.73;;
81960;SDS011;71462;50.650;6.888;2023-09-12T08:01:43;29.85;;;15.07;;
81960;SDS011;71462;50.650;6.888;2023-09-12T08:03:46;21.38;;;12.25;;
81960;SDS011;71462;50.650;6.888;2023-09-12T08:05:54;25.80;;;12.60;;
81960;SDS011;71462;50.650;6.888;2023-09-12T08:07:57;24.60;;;14.13;;
81960;SDS011;71462;50.650;6.888;2023-09-12T08:09:59;29.63;;;13.77;;
81960;SDS011;71462;50.650;6.888;2023-09-12T08:12:02;24.08;;;12.30;;
81960;SDS011;71462;50.650;6.888;2023-09-12T08:14:05;24.75;;;13.23;;
81960;SDS011;71462;50.650;6.888;2023-09-12T08:16:08;26.02;;;12.77;;
81960;SDS011;71462;50.650;6.888;2023-09-12T08:18:11;33.42;;;14.05;;
81960;SDS011;71462;50.650;6.888;2023-09-12T08:20:14;21.60;;;11.90;;
81960;SDS011;71462;50.650;6.888;2023-09-12T08:22:17;30.05;;;14.77;;
81960;SDS011;71462;50.650;6.888;2023-09-12T08:24:20;26.80;;;12.75;;
81960;SDS011;71462;50.650;6.888;2023-09-12T08:26:22;26.33;;;13.35;;
81960;SDS011;71462;50.650;6.888;2023-09-12T08:28:25;26.50;;;15.35;;
81960;SDS011;71462;50.650;6.888;2023-09-12T08:30:27;34.08;;;16.15;;
81960;SDS011;71462;50.650;6.888;2023-09-12T08:32:30;25.52;;;13.73;;
81960;SDS011;71462;50.650;6.888;2023-09-12T08:34:35;28.02;;;14.73;;
81960;SDS011;71462;50.650;6.888;2023-09-12T08:36:36;26.23;;;14.02;;
81960;SDS011;71462;50.650;6.888;2023-09-12T08:38:39;25.52;;;16.25;;
81960;SDS011;71462;50.650;6.888;2023-09-12T08:40:47;24.42;;;12.40;;
81960;SDS011;71462;50.650;6.888;2023-09-12T08:42:50;34.15;;;17.52;;
81960;SDS011;71462;50.650;6.888;2023-09-12T08:44:54;28.63;;;15.88;;
81960;SDS011;71462;50.650;6.888;2023-09-12T08:46:56;35.08;;;16.80;;
81960;SDS011;71462;50.650;6.888;2023-09-12T08:49:00;29.70;;;17.13;;
81960;SDS011;71462;50.650;6.888;2023-09-12T08:51:05;32.15;;;18.55;;
81960;SDS011;71462;50.650;6.888;2023-09-12T08:53:10;32.03;;;18.42;;
81960;SDS011;71462;50.650;6.888;2023-09-12T08:55:13;36.38;;;17.52;;
81960;SDS011;71462;50.650;6.888;2023-09-12T08:57:15;32.50;;;17.92;;
81960;SDS011;71462;50.650;6.888;2023-09-12T08:59:18;31.23;;;17.33;;
81960;SDS011;71462;50.650;6.888;2023-09-12T09:01:22;35.20;;;17.15;;
81960;SDS011;71462;50.650;6.888;2023-09-12T09:03:28;37.75;;;18.85;;
81960;SDS011;71462;50.650;6.888;2023-09-12T09:05:32;31.00;;;17.05;;
81960;SDS011;71462;50.650;6.888;2023-09-12T09:07:39;32.35;;;19.75;;
81960;SDS011;71462;50.650;6.888;2023-09-12T09:09:42;33.90;;;17.23;;
81960;SDS011;71462;50.650;6.888;2023-09-12T09:11:45;32.58;;;16.65;;
81960;SDS011;71462;50.650;6.888;2023-09-12T09:13:48;32.72;;;16.67;;
81960;SDS011;71462;50.650;6.888;2023-09-12T09:16:05;26.40;;;14.23;;
81960;SDS011;71462;50.650;6.888;2023-09-12T09:18:13;28.30;;;16.83;;
81960;SDS011;71462;50.650;6.888;2023-09-12T09:20:21;36.10;;;19.23;;
81960;SDS011;71462;50.650;6.888;2023-09-12T09:22:23;32.92;;;18.45;;
81960;SDS011;71462;50.650;6.888;2023-09-12T09:24:28;32.78;;;18.35;;
81960;SDS011;71462;50.650;6.888;2023-09-12T09:26:41;34.67;;;18.02;;
81960;SDS011;71462;50.650;6.888;2023-09-12T09:28:44;36.78;;;16.63;;
81960;SDS011;71462;50.650;6.888;2023-09-12T09:30:47;28.83;;;15.85;;
81960;SDS011;71462;50.650;6.888;2023-09-12T09:32:53;43.28;;;19.45;;
81960;SDS011;71462;50.650;6.888;2023-09-12T09:34:56;36.05;;;21.90;;
81960;SDS011;71462;50.650;6.888;2023-09-12T09:36:59;34.45;;;19.73;;
81960;SDS011;71462;50.650;6.888;2023-09-12T09:39:05;32.05;;;18.73;;
81960;SDS011;71462;50.650;6.888;2023-09-12T09:41:09;31.58;;;18.92;;
81960;SDS011;71462;50.650;6.888;2023-09-12T09:43:12;33.65;;;15.57;;
81960;SDS011;71462;50.650;6.888;2023-09-12T09:45:15;31.13;;;17.65;;
81960;SDS011;71462;50.650;6.888;2023-09-12T09:47:19;30.73;;;18.33;;
81960;SDS011;71462;50.650;6.888;2023-09-12T09:49:22;25.83;;;17.25;;
81960;SDS011;71462;50.650;6.888;2023-09-12T09:51:24;30.63;;;19.20;;
81960;SDS011;71462;50.650;6.888;2023-09-12T09:53:27;28.35;;;18.08;;
81960;SDS011;71462;50.650;6.888;2023-09-12T09:55:31;23.58;;;16.05;;
81960;SDS011;71462;50.650;6.888;2023-09-12T09:57:37;27.48;;;16.48;;
81960;SDS011;71462;50.650;6.888;2023-09-12T09:59:40;29.27;;;17.98;;
81960;SDS011;71462;50.650;6.888;2023-09-12T10:01:44;33.80;;;18.25;;
81960;SDS011;71462;50.650;6.888;2023-09-12T10:03:47;36.55;;;18.75;;
81960;SDS011;71462;50.650;6.888;2023-09-12T10:05:50;28.73;;;17.67;;
81960;SDS011;71462;50.650;6.888;2023-09-12T10:07:55;34.63;;;17.55;;
81960;SDS011;71462;50.650;6.888;2023-09-12T10:10:00;33.17;;;19.10;;
81960;SDS011;71462;50.650;6.888;2023-09-12T10:12:05;27.25;;;17.80;;
81960;SDS011;71462;50.650;6.888;2023-09-12T10:14:09;27.05;;;15.48;;
81960;SDS011;71462;50.650;6.888;2023-09-12T10:18:18;29.75;;;17.30;;
81960;SDS011;71462;50.650;6.888;2023-09-12T10:20:29;26.55;;;16.70;;
81960;SDS011;71462;50.650;6.888;2023-09-12T10:22:39;25.60;;;15.70;;
81960;SDS011;71462;50.650;6.888;2023-09-12T10:24:45;24.02;;;15.60;;
81960;SDS011;71462;50.650;6.888;2023-09-12T10:26:51;31.95;;;17.17;;
81960;SDS011;71462;50.650;6.888;2023-09-12T10:28:54;22.65;;;16.02;;
81960;SDS011;71462;50.650;6.888;2023-09-12T10:30:59;31.77;;;19.63;;
81960;SDS011;71462;50.650;6.888;2023-09-12T10:33:02;28.83;;;15.30;;
81960;SDS011;71462;50.650;6.888;2023-09-12T10:35:07;24.35;;;16.55;;
81960;SDS011;71462;50.650;6.888;2023-09-12T10:37:10;28.88;;;18.60;;
81960;SDS011;71462;50.650;6.888;2023-09-12T10:39:17;27.45;;;16.17;;
81960;SDS011;71462;50.650;6.888;2023-09-12T10:41:21;28.80;;;16.15;;
81960;SDS011;71462;50.650;6.888;2023-09-12T10:43:28;30.75;;;17.15;;
81960;SDS011;71462;50.650;6.888;2023-09-12T10:45:34;30.33;;;16.45;;
81960;SDS011;71462;50.650;6.888;2023-09-12T10:47:39;30.85;;;16.90;;
81960;SDS011;71462;50.650;6.888;2023-09-12T10:49:43;25.00;;;16.20;;
81960;SDS011;71462;50.650;6.888;2023-09-12T10:51:46;28.52;;;16.15;;
81960;SDS011;71462;50.650;6.888;2023-09-12T10:53:50;30.17;;;17.30;;
81960;SDS011;71462;50.650;6.888;2023-09-12T10:55:57;31.05;;;18.52;;
81960;SDS011;71462;50.650;6.888;2023-09-12T10:58:00;28.80;;;15.32;;
81960;SDS011;71462;50.650;6.888;2023-09-12T11:00:11;28.77;;;16.85;;
81960;SDS011;71462;50.650;6.888;2023-09-12T11:02:27;25.65;;;16.63;;
81960;SDS011;71462;50.650;6.888;2023-09-12T11:04:33;19.60;;;13.45;;
81960;SDS011;71462;50.650;6.888;2023-09-12T11:06:38;31.67;;;16.88;;
81960;SDS011;71462;50.650;6.888;2023-09-12T11:08:41;24.65;;;14.43;;
81960;SDS011;71462;50.650;6.888;2023-09-12T11:10:43;22.48;;;13.23;;
81960;SDS011;71462;50.650;6.888;2023-09-12T11:12:47;20.38;;;12.45;;
81960;SDS011;71462;50.650;6.888;2023-09-12T11:15:05;20.38;;;12.20;;
81960;SDS011;71462;50.650;6.888;2023-09-12T11:17:22;23.83;;;13.20;;
81960;SDS011;71462;50.650;6.888;2023-09-12T11:19:25;24.35;;;12.57;;
81960;SDS011;71462;50.650;6.888;2023-09-12T11:21:32;24.63;;;12.27;;
81960;SDS011;71462;50.650;6.888;2023-09-12T11:23:35;23.42;;;13.57;;
81960;SDS011;71462;50.650;6.888;2023-09-12T11:25:41;19.90;;;13.07;;
81960;SDS011;71462;50.650;6.888;2023-09-12T11:27:45;26.13;;;13.23;;
81960;SDS011;71462;50.650;6.888;2023-09-12T11:30:03;26.30;;;16.00;;
81960;SDS011;71462;50.650;6.888;2023-09-12T11:32:06;24.33;;;15.63;;
81960;SDS011;71462;50.650;6.888;2023-09-12T11:34:08;23.48;;;16.35;;
81960;SDS011;71462;50.650;6.888;2023-09-12T11:36:12;22.33;;;12.95;;
81960;SDS011;71462;50.650;6.888;2023-09-12T11:38:18;19.15;;;12.35;;
81960;SDS011;71462;50.650;6.888;2023-09-12T11:40:41;23.13;;;14.30;;
81960;SDS011;71462;50.650;6.888;2023-09-12T11:42:45;17.00;;;10.68;;
81960;SDS011;71462;50.650;6.888;2023-09-12T11:44:48;24.92;;;12.98;;
81960;SDS011;71462;50.650;6.888;2023-09-12T11:46:52;23.17;;;13.75;;
81960;SDS011;71462;50.650;6.888;2023-09-12T11:48:56;23.23;;;14.25;;
81960;SDS011;71462;50.650;6.888;2023-09-12T11:50:58;18.45;;;12.43;;
81960;SDS011;71462;50.650;6.888;2023-09-12T11:53:03;21.77;;;13.73;;
81960;SDS011;71462;50.650;6.888;2023-09-12T11:55:08;19.10;;;11.30;;
81960;SDS011;71462;50.650;6.888;2023-09-12T11:57:11;19.00;;;11.45;;
81960;SDS011;71462;50.650;6.888;2023-09-12T11:59:15;26.25;;;12.65;;
81960;SDS011;71462;50.650;6.888;2023-09-12T12:01:19;19.27;;;13.55;;
81960;SDS011;71462;50.650;6.888;2023-09-12T12:03:23;21.73;;;13.55;;
81960;SDS011;71462;50.650;6.888;2023-09-12T12:05:27;20.20;;;13.40;;
81960;SDS011;71462;50.650;6.888;2023-09-12T12:07:29;19.30;;;12.68;;
81960;SDS011;71462;50.650;6.888;2023-09-12T12:09:32;21.65;;;11.20;;
81960;SDS011;71462;50.650;6.888;2023-09-12T12:11:37;20.42;;;11.85;;
81960;SDS011;71462;50.650;6.888;2023-09-12T12:13:40;19.75;;;12.57;;
81960;SDS011;71462;50.650;6.888;2023-09-12T12:15:44;18.77;;;12.40;;